createdAt,value
2022-08-20T00:00:48.238Z,3.80
2022-08-20T00:03:20.761Z,3.85
2022-08-20T00:05:59.167Z,4.22
2022-08-20T00:12:46.725Z,4.40
2022-08-20T00:15:17.391Z,4.00
2022-08-20T00:18:50.335Z,3.58
2022-08-20T00:21:21.571Z,3.83
2022-08-20T00:29:30.321Z,4.25
2022-08-20T00:41:06.454Z,3.47
2022-08-20T00:43:38.401Z,3.97
2022-08-20T00:46:13.866Z,3.75
2022-08-20T00:48:47.954Z,3.70
2022-08-20T00:51:27.479Z,3.80
2022-08-20T00:54:06.285Z,3.55
2022-08-20T01:02:31.393Z,3.25
2022-08-20T01:05:01.890Z,3.20
2022-08-20T01:08:01.879Z,3.90
2022-08-20T01:11:36.933Z,3.60
2022-08-20T01:14:21.856Z,3.47
2022-08-20T01:16:52.556Z,3.67
2022-08-20T01:19:52.725Z,3.17
2022-08-20T01:23:13.410Z,3.00
2022-08-20T01:25:51.262Z,3.58
2022-08-20T01:32:46.829Z,3.83
2022-08-20T01:35:22.060Z,3.53
2022-08-20T01:38:40.443Z,3.33
2022-08-20T01:41:46.763Z,3.63
2022-08-20T01:44:16.961Z,4.18
2022-08-20T01:47:21.525Z,3.72
2022-08-20T01:49:53.799Z,3.67
2022-08-20T01:52:30.350Z,3.90
2022-08-20T01:54:59.758Z,3.78
2022-08-20T01:58:42.608Z,3.75
2022-08-20T02:05:10.898Z,3.75
2022-08-20T02:07:43.258Z,4.03
2022-08-20T02:14:23.407Z,4.07
2022-08-20T02:20:33.388Z,4.20
2022-08-20T02:23:03.514Z,3.75
2022-08-20T02:25:33.797Z,3.78
2022-08-20T02:32:43.616Z,4.30
2022-08-20T02:39:28.823Z,4.78
2022-08-20T02:41:58.062Z,4.40
2022-08-20T02:44:27.431Z,4.30
2022-08-20T02:47:42.393Z,4.32
2022-08-20T02:50:14.406Z,4.55
2022-08-20T02:52:47.167Z,4.95
2022-08-20T02:55:27.026Z,5.07
2022-08-20T02:58:25.609Z,4.75
2022-08-20T03:00:57.008Z,4.53
2022-08-20T03:03:27.218Z,5.15
2022-08-20T03:06:24.849Z,4.65
2022-08-20T03:13:38.084Z,5.10
2022-08-20T03:16:43.875Z,4.70
2022-08-20T03:19:43.143Z,5.28
2022-08-20T03:35:08.974Z,4.32
2022-08-20T03:41:24.552Z,4.55
2022-08-20T03:43:53.890Z,5.32
2022-08-20T03:50:00.064Z,4.85
2022-08-20T03:52:29.944Z,5.72
2022-08-20T03:54:59.210Z,4.93
2022-08-20T04:01:09.096Z,5.35
2022-08-20T04:03:58.806Z,6.07
2022-08-20T04:06:29.408Z,5.20
2022-08-20T04:08:59.423Z,5.03
2022-08-20T04:15:33.519Z,5.40
2022-08-20T04:18:41.130Z,6.13
2022-08-20T04:21:12.274Z,5.83
2022-08-20T04:23:42.379Z,5.40
2022-08-20T04:26:25.741Z,5.32
2022-08-20T04:32:38.857Z,5.45
2022-08-20T04:35:08.823Z,5.30
2022-08-20T04:42:53.235Z,4.97
2022-08-20T04:46:21.059Z,5.00
2022-08-20T04:49:26.621Z,5.65
2022-08-20T04:51:57.672Z,5.15
2022-08-20T04:54:27.286Z,5.35
2022-08-20T04:57:03.882Z,5.13
2022-08-20T04:59:33.540Z,5.70
2022-08-20T05:02:03.118Z,5.38
2022-08-20T05:12:13.939Z,6.15
2022-08-20T05:14:43.400Z,5.43
2022-08-20T05:20:51.284Z,4.90
2022-08-20T05:23:21.846Z,5.07
2022-08-20T05:25:52.681Z,4.90
2022-08-20T05:28:54.405Z,5.13
2022-08-20T05:31:31.360Z,4.72
2022-08-20T05:34:02.066Z,5.13
2022-08-20T05:36:31.310Z,4.93
2022-08-20T05:39:00.598Z,5.68
2022-08-20T05:41:30.643Z,5.47
2022-08-20T05:44:02.254Z,5.40
2022-08-20T05:46:33.503Z,5.50
2022-08-20T05:52:51.055Z,5.15
2022-08-20T05:55:20.690Z,4.95
2022-08-20T06:06:18.166Z,5.65
2022-08-20T06:08:59.881Z,4.68
2022-08-20T06:12:12.633Z,5.07
2022-08-20T06:14:42.126Z,4.75
2022-08-20T06:17:15.353Z,5.10
2022-08-20T06:19:46.019Z,5.55
2022-08-20T06:22:21.273Z,5.85
2022-08-20T06:25:00.762Z,5.95
2022-08-20T06:27:54.114Z,5.57
2022-08-20T06:30:23.681Z,6.13
2022-08-20T06:32:53.315Z,4.97
2022-08-20T06:35:22.367Z,5.18
2022-08-20T06:38:55.966Z,5.50
2022-08-20T06:41:35.721Z,5.00
2022-08-20T06:44:05.708Z,5.30
2022-08-20T06:46:34.806Z,5.35
2022-08-20T06:52:54.037Z,4.65
2022-08-20T06:58:08.123Z,5.00
2022-08-20T07:00:57.195Z,5.45
2022-08-20T07:03:26.252Z,5.50
2022-08-20T07:10:31.295Z,5.15
2022-08-20T07:18:00.755Z,5.40
2022-08-20T07:20:31.865Z,5.30
2022-08-20T07:23:01.072Z,4.63
2022-08-20T07:25:30.967Z,4.82
2022-08-20T07:32:45.409Z,5.00
2022-08-20T07:35:19.007Z,4.80
2022-08-20T07:37:54.718Z,4.50
2022-08-20T07:40:27.793Z,4.95
2022-08-20T07:42:57.384Z,5.15
2022-08-20T07:45:26.857Z,4.78
2022-08-20T07:48:07.582Z,5.05
2022-08-20T07:50:38.399Z,5.05
2022-08-20T07:53:07.851Z,4.60
2022-08-20T07:55:36.892Z,4.35
2022-08-20T08:02:29.918Z,5.18
2022-08-20T08:04:58.725Z,4.63
2022-08-20T08:07:35.952Z,4.60
2022-08-20T08:10:09.649Z,5.80
2022-08-20T08:21:54.497Z,3.85
2022-08-20T08:24:28.323Z,4.35
2022-08-20T08:27:32.704Z,4.20
2022-08-20T08:30:02.827Z,4.95
2022-08-20T08:32:32.553Z,4.43
2022-08-20T08:35:09.277Z,4.65
2022-08-20T08:38:08.780Z,4.45
2022-08-20T08:40:59.822Z,4.55
2022-08-20T08:43:31.634Z,5.10
2022-08-20T08:46:12.760Z,4.55
2022-08-20T08:48:45.740Z,4.72
2022-08-20T08:51:18.101Z,4.45
2022-08-20T08:53:55.060Z,5.00
2022-08-20T08:56:29.631Z,4.72
2022-08-20T08:59:02.111Z,4.82
2022-08-20T09:01:54.878Z,4.30
2022-08-20T09:05:20.817Z,4.90
2022-08-20T09:08:52.618Z,4.70
2022-08-20T09:11:24.221Z,4.82
2022-08-20T09:18:27.995Z,4.88
2022-08-20T09:20:57.638Z,4.57
2022-08-20T09:23:26.367Z,4.68
2022-08-20T09:32:46.943Z,4.75
2022-08-20T09:35:19.507Z,4.95
2022-08-20T09:42:36.223Z,4.53
2022-08-20T09:45:11.174Z,4.20
2022-08-20T09:52:28.958Z,4.63
2022-08-20T09:55:01.991Z,4.75
2022-08-20T09:58:09.379Z,4.38
2022-08-20T10:00:38.527Z,4.75
2022-08-20T10:03:07.536Z,4.97
2022-08-20T10:05:56.063Z,4.53
2022-08-20T10:08:26.637Z,4.68
2022-08-20T10:10:58.349Z,4.55
2022-08-20T10:17:52.305Z,5.15
2022-08-20T10:20:22.562Z,4.70
2022-08-20T10:22:51.917Z,4.70
2022-08-20T10:25:22.246Z,4.30
2022-08-20T10:27:51.715Z,4.50
2022-08-20T10:30:23.259Z,4.63
2022-08-20T10:33:01.969Z,4.28
2022-08-20T10:35:31.658Z,4.28
2022-08-20T10:38:29.197Z,4.70
2022-08-20T10:40:59.581Z,4.63
2022-08-20T10:43:28.431Z,4.43
2022-08-20T10:45:57.160Z,4.32
2022-08-20T10:48:32.756Z,5.43
2022-08-20T10:51:01.793Z,4.47
2022-08-20T10:53:30.692Z,4.47
2022-08-20T10:56:01.790Z,4.45
2022-08-20T10:58:39.557Z,5.13
2022-08-20T11:01:12.732Z,5.20
2022-08-20T11:04:01.261Z,4.30
2022-08-20T11:06:39.098Z,5.03
2022-08-20T11:09:09.731Z,4.50
2022-08-20T11:11:40.320Z,5.00
2022-08-20T11:14:09.330Z,4.90
2022-08-20T11:16:51.391Z,4.60
2022-08-20T11:19:20.717Z,4.50
2022-08-20T11:21:49.598Z,4.53
2022-08-20T11:24:19.148Z,4.80
2022-08-20T11:27:12.453Z,4.60
2022-08-20T11:29:41.830Z,4.93
2022-08-20T11:32:12.702Z,4.75
2022-08-20T11:34:44.050Z,4.68
2022-08-20T11:37:41.816Z,5.07
2022-08-20T11:40:13.054Z,5.40
2022-08-20T11:43:04.377Z,5.13
2022-08-20T11:45:32.821Z,4.97
2022-08-20T11:48:21.646Z,5.10
2022-08-20T11:50:53.546Z,5.55
2022-08-20T11:53:22.559Z,4.78
2022-08-20T11:55:52.025Z,5.10
2022-08-20T11:58:33.952Z,4.80
2022-08-20T12:01:02.896Z,4.80
2022-08-20T12:03:32.056Z,4.65
2022-08-20T12:06:01.099Z,4.75
2022-08-20T12:08:33.032Z,5.00
2022-08-20T12:11:03.834Z,4.85
2022-08-20T12:13:47.911Z,5.38
2022-08-20T12:16:18.405Z,4.65
2022-08-20T12:18:47.326Z,6.00
2022-08-20T12:21:16.588Z,5.10
2022-08-20T12:23:51.423Z,5.15
2022-08-20T12:26:22.268Z,5.13
2022-08-20T12:28:56.136Z,5.68
2022-08-20T12:31:24.942Z,4.97
2022-08-20T12:33:53.646Z,4.43
2022-08-20T12:36:22.955Z,4.60
2022-08-20T12:38:52.076Z,4.40
2022-08-20T12:41:22.870Z,4.68
2022-08-20T12:43:51.761Z,4.82
2022-08-20T12:46:23.285Z,4.78
2022-08-20T12:48:54.618Z,5.57
2022-08-20T12:51:23.919Z,4.82
2022-08-20T12:53:52.676Z,4.50
2022-08-20T12:56:22.708Z,4.30
2022-08-20T12:59:24.118Z,4.90
2022-08-20T13:01:56.847Z,4.68
2022-08-20T13:04:27.414Z,4.80
2022-08-20T13:07:02.934Z,5.20
2022-08-20T13:09:32.251Z,5.07
2022-08-20T13:12:01.241Z,5.00
2022-08-20T13:14:43.415Z,4.78
2022-08-20T13:17:20.094Z,4.35
2022-08-20T13:20:00.575Z,4.63
2022-08-20T13:22:29.682Z,4.15
2022-08-20T13:24:58.878Z,4.75
2022-08-20T13:27:27.950Z,4.88
2022-08-20T13:29:58.982Z,4.78
2022-08-20T13:32:42.343Z,4.82
2022-08-20T13:35:12.897Z,4.53
2022-08-20T13:37:42.940Z,4.45
2022-08-20T13:40:13.146Z,4.50
2022-08-20T13:42:42.169Z,4.45
2022-08-20T13:45:12.306Z,4.30
2022-08-20T13:47:43.751Z,4.28
2022-08-20T13:50:16.660Z,4.32
2022-08-20T13:52:49.975Z,4.40
2022-08-20T13:55:22.152Z,4.07
2022-08-20T13:57:52.855Z,4.15
2022-08-20T14:00:31.293Z,3.90
2022-08-20T14:03:03.193Z,4.28
2022-08-20T14:05:32.968Z,4.13
2022-08-20T14:08:30.547Z,4.20
2022-08-20T14:10:59.808Z,3.78
2022-08-20T14:13:32.339Z,4.45
2022-08-20T14:16:01.976Z,3.50
2022-08-20T14:19:01.081Z,3.22
2022-08-20T14:21:29.888Z,3.70
2022-08-20T14:23:59.346Z,3.40
2022-08-20T14:30:24.592Z,3.05
2022-08-20T14:32:54.468Z,2.97
2022-08-20T14:35:25.554Z,2.70
2022-08-20T14:37:56.865Z,2.58
2022-08-20T14:45:12.277Z,3.33
2022-08-20T14:48:19.013Z,3.50
2022-08-20T14:50:49.478Z,4.45
2022-08-20T14:53:19.636Z,3.42
2022-08-20T14:55:48.721Z,3.33
2022-08-20T14:58:42.232Z,3.25
2022-08-20T15:05:44.164Z,2.88
2022-08-20T15:12:38.085Z,2.35
2022-08-20T15:15:15.331Z,2.70
2022-08-20T15:22:08.666Z,2.45
2022-08-20T15:24:37.773Z,2.30
2022-08-20T15:28:13.981Z,2.33
2022-08-20T15:31:08.362Z,2.35
2022-08-20T15:33:39.311Z,2.25
2022-08-20T15:36:10.145Z,2.13
2022-08-20T15:43:21.988Z,2.10
2022-08-20T15:45:51.100Z,2.15
2022-08-20T15:53:14.443Z,2.13
2022-08-20T15:55:48.013Z,2.13
2022-08-20T15:58:30.223Z,1.92
2022-08-20T16:05:29.520Z,2.15
2022-08-20T16:12:45.487Z,2.33
2022-08-20T16:15:26.584Z,2.80
2022-08-20T16:22:00.017Z,2.50
2022-08-20T16:24:30.516Z,2.53
2022-08-20T16:31:29.828Z,3.00
2022-08-20T16:43:52.419Z,4.47
2022-08-20T16:47:37.483Z,3.53
2022-08-20T17:00:24.572Z,2.42
2022-08-20T17:02:56.478Z,2.80
2022-08-20T17:05:29.652Z,3.10
2022-08-20T17:12:20.008Z,3.28
2022-08-20T17:15:27.627Z,3.17
2022-08-20T17:22:32.581Z,4.63
2022-08-20T17:25:58.905Z,3.97
2022-08-20T17:36:38.591Z,5.00
2022-08-20T17:39:18.645Z,3.67
2022-08-20T17:41:51.568Z,3.90
2022-08-20T17:44:24.877Z,3.50
2022-08-20T17:47:25.735Z,3.95
2022-08-20T17:50:03.067Z,3.63
2022-08-20T17:57:14.465Z,3.83
2022-08-20T18:00:01.026Z,3.80
2022-08-20T18:02:36.945Z,3.80
2022-08-20T18:05:11.926Z,4.40
2022-08-20T18:12:34.384Z,3.95
2022-08-20T18:15:11.270Z,4.03
2022-08-20T18:22:27.726Z,4.35
2022-08-20T18:25:02.816Z,3.85
2022-08-20T18:32:32.052Z,4.43
2022-08-20T18:35:20.119Z,4.47
2022-08-20T18:42:42.627Z,4.60
2022-08-20T18:45:14.385Z,4.30
2022-08-20T18:48:48.184Z,4.88
2022-08-20T18:51:22.097Z,4.25
2022-08-20T18:53:53.921Z,4.15
2022-08-20T18:57:17.209Z,4.65
2022-08-20T19:04:32.143Z,6.20
2022-08-20T19:07:58.057Z,5.63
2022-08-20T19:10:49.571Z,5.45
2022-08-20T19:13:46.222Z,5.25
2022-08-20T19:16:21.189Z,4.88
2022-08-20T19:23:16.867Z,4.80
2022-08-20T19:25:56.169Z,5.28
2022-08-20T19:28:44.769Z,5.30
2022-08-20T19:38:16.577Z,5.47
2022-08-20T19:40:47.262Z,5.38
2022-08-20T19:43:44.842Z,4.97
2022-08-20T19:46:17.007Z,5.05
2022-08-20T19:48:57.333Z,6.50
2022-08-20T19:52:09.003Z,6.00
2022-08-20T19:54:48.680Z,6.00
2022-08-20T19:58:26.038Z,5.40
2022-08-20T20:02:20.306Z,6.47
2022-08-20T20:04:55.709Z,5.90
2022-08-20T20:07:45.246Z,5.70
2022-08-20T20:10:33.027Z,5.57
2022-08-20T20:13:09.824Z,5.90
2022-08-20T20:15:40.517Z,5.40
2022-08-20T20:18:25.251Z,6.05
2022-08-20T20:20:58.660Z,6.05
2022-08-20T20:23:38.762Z,5.78
2022-08-20T20:26:18.205Z,5.88
2022-08-20T20:29:10.304Z,5.53
2022-08-20T20:31:44.795Z,6.18
2022-08-20T20:34:33.724Z,5.57
2022-08-20T20:37:12.566Z,6.10
2022-08-20T20:39:44.194Z,5.70
2022-08-20T20:42:15.005Z,5.60
2022-08-20T20:48:51.304Z,6.43
2022-08-20T20:51:27.090Z,6.50
2022-08-20T20:53:59.452Z,6.35
2022-08-20T20:56:31.931Z,6.28
2022-08-20T20:59:05.859Z,6.32
2022-08-20T21:01:49.115Z,6.20
2022-08-20T21:04:23.422Z,6.07
2022-08-20T21:07:01.133Z,5.80
2022-08-20T21:09:31.781Z,6.22
2022-08-20T21:12:01.444Z,6.18
2022-08-20T21:14:30.631Z,6.63
2022-08-20T21:17:22.764Z,6.63
2022-08-20T21:19:53.114Z,6.35
2022-08-20T21:22:41.395Z,6.82
2022-08-20T21:26:12.697Z,5.50
2022-08-20T21:33:26.940Z,6.40
2022-08-20T21:35:56.731Z,5.90
2022-08-20T21:38:59.079Z,6.25
2022-08-20T21:41:29.949Z,6.45
2022-08-20T21:43:59.638Z,6.18
2022-08-20T21:47:46.873Z,6.40
2022-08-20T21:50:21.433Z,7.00
2022-08-20T21:57:19.796Z,5.88
2022-08-20T21:59:49.351Z,6.18
2022-08-20T22:02:19.091Z,5.93
2022-08-20T22:04:47.900Z,6.35
2022-08-20T22:11:52.044Z,6.45
2022-08-20T22:19:33.814Z,6.30
2022-08-20T22:22:02.864Z,6.45
2022-08-20T22:24:32.961Z,6.97
2022-08-20T22:27:03.558Z,5.97
2022-08-20T22:30:14.131Z,6.13
2022-08-20T22:33:14.592Z,6.90
2022-08-20T22:35:46.768Z,6.50
2022-08-20T22:39:30.443Z,5.85
2022-08-20T22:41:59.265Z,5.45
2022-08-20T22:44:29.638Z,7.00
2022-08-20T22:47:02.899Z,7.05
2022-08-20T22:49:36.370Z,7.15
2022-08-20T22:52:06.407Z,6.40
2022-08-20T22:54:36.897Z,7.22
2022-08-20T23:05:42.214Z,6.38
2022-08-20T23:09:35.673Z,6.53
2022-08-20T23:12:06.287Z,5.85
2022-08-20T23:28:17.731Z,6.53
2022-08-20T23:30:47.873Z,6.40
2022-08-20T23:33:17.540Z,6.90
2022-08-20T23:35:47.628Z,6.53
2022-08-20T23:38:16.874Z,7.68
2022-08-20T23:40:45.632Z,7.32
2022-08-20T23:43:15.952Z,6.80
2022-08-20T23:45:45.931Z,7.13
2022-08-20T23:48:15.182Z,7.20
2022-08-20T23:50:43.977Z,6.85
2022-08-20T23:53:13.014Z,7.57
2022-08-20T23:58:10.220Z,6.45
